Time;durP1;ratioP1;P1;durP2;ratioP2;P2;SDS_P1;SDS_P2;PMS_P1;PMS_P2;Temp;Humidity;BMP_temperature;BMP_pressure;BME280_temperature;BME280_humidity;BME280_pressure;Samples;Min_cycle;Max_cycle;Signal;HPM_P1;HPM_P2
2021/06/22 00:02:20;;;;;;;7.67;1.10;;;;;;;21.26;73.45;99393.05;1702413;81;21080;-60
2021/06/22 00:04:46;;;;;;;7.20;1.12;;;;;;;21.23;73.42;99397.45;1702480;81;21120;-59
2021/06/22 00:07:14;;;;;;;5.03;1.35;;;;;;;21.22;73.55;99390.75;1706891;81;21405;-58
2021/06/22 00:09:42;;;;;;;5.30;1.65;;;;;;;21.18;73.53;99390.17;1704770;81;21083;-60
2021/06/22 00:12:10;;;;;;;4.83;1.30;;;;;;;21.17;73.45;99383.48;1705145;81;21131;-57
2021/06/22 00:14:38;;;;;;;2.15;1.30;;;;;;;21.14;73.44;99385.49;1707286;81;21075;-59
2021/06/22 00:17:06;;;;;;;7.22;2.12;;;;;;;21.12;73.57;99383.91;1705742;81;21653;-57
2021/06/22 00:19:33;;;;;;;2.75;1.20;;;;;;;21.08;73.69;99381.13;1706325;81;21682;-57
2021/06/22 00:21:59;;;;;;;2.22;1.22;;;;;;;21.06;73.96;99383.15;1707906;81;21052;-59
2021/06/22 00:24:26;;;;;;;5.30;1.50;;;;;;;21.05;74.05;99375.95;1706908;81;21258;-59
2021/06/22 00:26:52;;;;;;;6.83;1.30;;;;;;;21.02;73.87;99380.34;1703873;81;21131;-59
2021/06/22 00:29:21;;;;;;;7.53;1.70;;;;;;;21.00;73.97;99379.66;1704921;81;21115;-59
2021/06/22 00:31:48;;;;;;;5.33;1.70;;;;;;;20.98;74.09;99386.63;1707295;81;21491;-60
2021/06/22 00:34:15;;;;;;;6.10;2.15;;;;;;;20.97;74.20;99380.80;1708386;81;22167;-59
2021/06/22 00:36:41;;;;;;;7.33;1.52;;;;;;;20.97;74.29;99389.01;1707066;81;21121;-57
2021/06/22 00:39:07;;;;;;;8.08;1.35;;;;;;;20.98;74.39;99383.03;1709590;81;21360;-56
2021/06/22 00:41:34;;;;;;;8.50;1.62;;;;;;;20.97;74.37;99386.27;1707820;81;20981;-59
2021/06/22 00:44:08;;;;;;;4.05;1.65;;;;;;;20.94;74.36;99381.09;1711361;81;20980;-59
2021/06/22 00:46:36;;;;;;;6.67;1.70;;;;;;;20.93;74.39;99386.20;1704104;81;21091;-59
2021/06/22 00:49:03;;;;;;;1.95;1.72;;;;;;;20.91;74.40;99385.51;1709011;81;21154;-59
2021/06/22 00:51:31;;;;;;;3.65;1.47;;;;;;;20.90;74.43;99381.55;1709369;81;20925;-57
2021/06/22 00:53:59;;;;;;;3.90;1.50;;;;;;;20.89;74.44;99377.08;1708812;81;21525;-58
2021/06/22 00:56:30;;;;;;;3.22;1.77;;;;;;;20.87;74.38;99371.75;1699416;82;21067;-59
2021/06/22 00:58:57;;;;;;;4.87;1.60;;;;;;;20.84;74.36;99363.83;1720227;82;20953;-57
2021/06/22 01:01:25;;;;;;;8.95;2.22;;;;;;;20.83;74.40;99359.91;1715967;82;21514;-59
2021/06/22 01:03:52;;;;;;;12.30;2.25;;;;;;;20.83;74.46;99369.48;1717480;82;21464;-59
2021/06/22 01:06:20;;;;;;;8.50;2.02;;;;;;;20.82;74.74;99375.45;1733285;80;21389;-58
2021/06/22 01:08:49;;;;;;;5.45;1.30;;;;;;;20.81;74.90;99375.09;1728389;80;21532;-59
2021/06/22 01:11:15;;;;;;;5.25;1.95;;;;;;;20.81;74.66;99379.70;1719102;81;21626;-59
2021/06/22 01:13:43;;;;;;;6.53;1.80;;;;;;;20.81;74.53;99382.43;1741189;80;21125;-59
2021/06/22 01:16:22;;;;;;;6.87;1.70;;;;;;;20.80;74.51;99392.51;1762802;78;21096;-59
2021/06/22 01:18:49;;;;;;;10.68;2.30;;;;;;;20.77;74.48;99379.11;1748538;80;21072;-58
2021/06/22 01:21:27;;;;;;;8.23;2.22;;;;;;;20.76;74.32;99386.95;1761107;78;21483;-58
2021/06/22 01:24:06;;;;;;;8.28;2.20;;;;;;;20.72;74.29;99374.60;1767744;78;21103;-57
2021/06/22 01:26:39;;;;;;;7.78;1.42;;;;;;;20.68;74.29;99374.02;1769022;78;21792;-57
2021/06/22 01:29:07;;;;;;;13.98;1.75;;;;;;;20.66;74.17;99362.39;1762684;78;21462;-58
2021/06/22 01:31:36;;;;;;;14.35;1.57;;;;;;;20.62;74.13;99355.48;1706793;81;21069;-58
2021/06/22 01:34:04;;;;;;;11.55;1.98;;;;;;;20.58;74.08;99353.20;1714464;81;21019;-56
2021/06/22 01:36:34;;;;;;;15.63;1.90;;;;;;;20.54;73.98;99345.78;1763545;78;21365;-58
2021/06/22 01:39:03;;;;;;;17.52;2.52;;;;;;;20.52;73.87;99337.36;1767026;78;21184;-59
2021/06/22 01:41:30;;;;;;;20.23;2.87;;;;;;;20.49;73.82;99338.53;1737255;78;21104;-57
2021/06/22 01:43:58;;;;;;;13.13;2.05;;;;;;;20.46;73.78;99334.72;1762056;78;21080;-58
2021/06/22 01:46:25;;;;;;;11.73;1.82;;;;;;;20.44;73.88;99334.50;1761763;78;21491;-59
2021/06/22 01:48:52;;;;;;;12.75;2.37;;;;;;;20.41;73.98;99330.70;1765945;78;21493;-58
2021/06/22 01:51:19;;;;;;;13.68;2.35;;;;;;;20.37;74.13;99326.89;1761555;78;21214;-56
2021/06/22 01:53:56;;;;;;;16.62;2.45;;;;;;;20.34;73.96;99320.84;1764649;78;20985;-56
2021/06/22 01:56:24;;;;;;;10.03;1.65;;;;;;;20.32;73.88;99321.48;1763731;78;20986;-56
2021/06/22 01:59:43;;;;;;;22.17;3.60;;;;;;;20.33;73.85;99319.11;1789304;78;28117;-54
2021/06/22 02:02:11;;;;;;;19.35;2.90;;;;;;;20.27;74.03;99321.03;1706998;81;21007;-54
2021/06/22 02:04:39;;;;;;;22.02;3.45;;;;;;;20.25;74.15;99336.20;1724334;80;21520;-55
2021/06/22 02:07:15;;;;;;;11.80;2.50;;;;;;;20.21;74.30;99351.19;1708510;83;21542;-55
2021/06/22 02:09:42;;;;;;;17.92;3.40;;;;;;;20.16;74.35;99354.00;1711087;83;21606;-55
2021/06/22 02:12:10;;;;;;;19.37;4.28;;;;;;;20.12;74.53;99350.69;1710940;83;22358;-55
2021/06/22 02:14:38;;;;;;;21.73;3.37;;;;;;;20.11;74.67;99348.09;1708801;81;21140;-54
2021/06/22 02:17:04;;;;;;;34.90;4.50;;;;;;;20.10;74.71;99354.05;1708382;83;22119;-55
2021/06/22 02:19:31;;;;;;;41.65;5.25;;;;;;;20.10;74.91;99340.39;1707075;83;20978;-55
2021/06/22 02:21:59;;;;;;;32.23;4.45;;;;;;;20.10;74.90;99336.30;1729709;80;21032;-54
2021/06/22 02:24:27;;;;;;;24.98;4.00;;;;;;;20.11;75.01;99340.75;1709370;81;21088;-54
2021/06/22 02:26:53;;;;;;;27.98;3.62;;;;;;;20.11;75.15;99333.92;1715841;82;21476;-55
2021/06/22 02:29:21;;;;;;;22.67;4.15;;;;;;;20.15;75.16;99320.85;1716768;82;21813;-54
2021/06/22 02:31:47;;;;;;;29.85;3.72;;;;;;;20.16;75.09;99322.05;1713310;81;21830;-54
2021/06/22 02:34:14;;;;;;;22.07;3.98;;;;;;;20.19;75.04;99322.27;1711351;82;21551;-54
2021/06/22 02:36:41;;;;;;;16.95;3.05;;;;;;;20.21;75.13;99320.27;1715474;81;21086;-55
2021/06/22 02:39:08;;;;;;;18.52;3.62;;;;;;;20.21;75.12;99308.83;1689361;83;21064;-54
2021/06/22 02:41:37;;;;;;;21.23;3.40;;;;;;;20.22;75.15;99318.75;1737892;81;21217;-55
2021/06/22 02:44:05;;;;;;;28.57;3.83;;;;;;;20.22;75.14;99313.29;1740526;81;21077;-55
2021/06/22 02:46:33;;;;;;;24.10;3.35;;;;;;;20.22;75.17;99317.39;1745321;81;21370;-55
2021/06/22 02:49:00;;;;;;;24.05;3.27;;;;;;;20.24;75.22;99319.48;1741675;80;21368;-54
2021/06/22 02:51:27;;;;;;;14.40;2.40;;;;;;;20.28;75.23;99326.86;1741063;80;21649;-55
2021/06/22 02:53:53;;;;;;;24.85;2.90;;;;;;;20.29;75.31;99322.63;1739545;81;21729;-54
2021/06/22 02:56:20;;;;;;;19.20;2.87;;;;;;;20.32;75.46;99318.75;1739667;81;21105;-55
2021/06/22 02:58:49;;;;;;;14.15;2.80;;;;;;;20.36;75.60;99321.06;1732844;81;21153;-54
2021/06/22 03:01:17;;;;;;;22.70;3.00;;;;;;;20.42;75.69;99325.06;1727184;81;20910;-54
2021/06/22 03:03:44;;;;;;;24.30;4.33;;;;;;;20.46;75.79;99310.11;1701218;81;21467;-54
2021/06/22 03:06:13;;;;;;;18.90;2.52;;;;;;;20.54;75.85;99317.58;1729239;81;21409;-54
2021/06/22 03:08:47;;;;;;;18.02;3.15;;;;;;;20.61;75.85;99321.44;1727809;81;21782;-55
2021/06/22 03:11:14;;;;;;;15.83;3.25;;;;;;;20.67;75.96;99329.08;1697639;82;21528;-54
2021/06/22 03:13:42;;;;;;;19.70;3.83;;;;;;;20.71;76.11;99335.95;1730075;81;21418;-55
2021/06/22 03:16:12;;;;;;;34.38;4.55;;;;;;;20.73;76.24;99334.80;1729558;81;20911;-54
2021/06/22 03:18:39;;;;;;;24.32;3.25;;;;;;;20.75;76.40;99336.03;1730090;81;22425;-54
2021/06/22 03:21:08;;;;;;;13.40;1.87;;;;;;;20.76;76.48;99332.25;1729383;81;21099;-56
2021/06/22 03:23:34;;;;;;;13.32;2.15;;;;;;;20.80;76.40;99349.25;1728395;81;20915;-56
2021/06/22 03:26:01;;;;;;;18.05;2.70;;;;;;;20.82;76.47;99351.34;1727476;81;21406;-56
2021/06/22 03:28:29;;;;;;;19.80;2.83;;;;;;;20.85;76.62;99357.35;1721788;82;21521;-57
2021/06/22 03:31:12;;;;;;;21.00;2.58;;;;;;;20.91;76.71;99354.55;1717322;82;21125;-56
2021/06/22 03:33:38;;;;;;;21.65;3.98;;;;;;;20.99;76.80;99358.77;1723043;81;21118;-55
2021/06/22 03:36:06;;;;;;;30.65;4.45;;;;;;;21.06;76.84;99358.52;1720816;81;21070;-56
2021/06/22 03:38:32;;;;;;;33.23;4.95;;;;;;;21.14;76.90;99354.02;1679756;83;21600;-56
2021/06/22 03:40:59;;;;;;;32.25;5.47;;;;;;;21.25;77.00;99354.88;1657153;85;21158;-55
2021/06/22 03:43:26;;;;;;;38.50;6.55;;;;;;;21.35;76.97;99359.27;1721330;82;21418;-56
2021/06/22 03:45:54;;;;;;;55.28;8.70;;;;;;;21.48;76.73;99354.32;1724358;82;20883;-56
2021/06/22 03:48:20;;;;;;;52.85;8.25;;;;;;;21.60;76.38;99351.38;1725282;82;21409;-56
2021/06/22 03:50:47;;;;;;;53.73;8.73;;;;;;;21.71;75.99;99355.25;1726822;82;21390;-56
2021/06/22 03:53:13;;;;;;;55.43;8.00;;;;;;;21.80;75.81;99349.71;1724158;81;21289;-56
2021/06/22 03:55:40;;;;;;;57.83;9.70;;;;;;;21.92;75.28;99357.72;1684827;83;22374;-55
2021/06/22 03:58:15;;;;;;;60.70;7.50;;;;;;;22.00;74.86;99355.09;1664933;85;21904;-55
2021/06/22 04:00:46;;;;;;;48.25;7.40;;;;;;;22.09;74.69;99344.06;1695252;83;21081;-56
2021/06/22 04:03:14;;;;;;;47.95;7.33;;;;;;;22.18;74.53;99343.12;1695833;83;21062;-55
2021/06/22 04:05:45;;;;;;;57.70;10.30;;;;;;;22.26;73.60;99338.22;1693965;83;21097;-56
2021/06/22 04:08:16;;;;;;;56.60;8.60;;;;;;;22.36;72.43;99331.28;1668067;85;21726;-55
2021/06/22 04:10:43;;;;;;;56.53;8.68;;;;;;;22.44;71.76;99336.83;1697400;83;21095;-56
2021/06/22 04:13:09;;;;;;;69.15;11.40;;;;;;;22.52;71.49;99338.26;1697281;83;21188;-56
2021/06/22 04:15:36;;;;;;;53.73;9.95;;;;;;;22.57;71.00;99338.12;1697323;83;21200;-56
2021/06/22 04:18:04;;;;;;;51.25;10.65;;;;;;;22.62;70.53;99337.14;1699448;83;22455;-55
2021/06/22 04:20:32;;;;;;;49.75;7.83;;;;;;;22.69;70.36;99334.61;1696103;83;21917;-55
2021/06/22 04:23:00;;;;;;;45.95;7.72;;;;;;;22.74;70.61;99336.86;1698686;83;21031;-56
2021/06/22 04:25:26;;;;;;;47.95;5.92;;;;;;;22.81;71.04;99347.56;1695874;83;21137;-57
2021/06/22 04:27:53;;;;;;;40.65;5.87;;;;;;;22.87;70.78;99356.55;1699220;83;21114;-56
2021/06/22 04:30:21;;;;;;;42.00;5.97;;;;;;;22.91;70.21;99352.44;1697109;83;21141;-57
2021/06/22 04:32:49;;;;;;;41.13;5.80;;;;;;;22.98;69.84;99355.74;1696081;83;21117;-56
2021/06/22 04:35:16;;;;;;;42.48;6.35;;;;;;;23.05;68.90;99351.86;1674088;85;21083;-57
2021/06/22 04:37:42;;;;;;;53.00;6.65;;;;;;;23.14;68.32;99353.59;1678152;83;21160;-56
2021/06/22 04:40:10;;;;;;;47.08;5.65;;;;;;;23.22;67.88;99356.93;1670318;83;21098;-57
2021/06/22 04:42:37;;;;;;;36.77;6.08;;;;;;;23.28;67.28;99354.38;1676523;83;20951;-55
2021/06/22 04:45:06;;;;;;;34.40;4.35;;;;;;;23.36;66.26;99341.19;1673656;85;21141;-56
2021/06/22 04:47:33;;;;;;;38.78;5.10;;;;;;;23.44;65.58;99337.62;1676508;84;21057;-56
2021/06/22 04:49:59;;;;;;;46.80;5.25;;;;;;;23.51;65.08;99342.31;1666905;83;21460;-56
2021/06/22 04:52:25;;;;;;;53.65;5.78;;;;;;;23.58;64.99;99337.00;1688455;84;21127;-57
2021/06/22 04:54:52;;;;;;;36.53;5.42;;;;;;;23.65;64.77;99329.30;1686903;84;21076;-55
2021/06/22 04:57:20;;;;;;;42.53;6.08;;;;;;;23.73;64.41;99329.31;1674915;83;22214;-55
2021/06/22 04:59:47;;;;;;;35.15;6.08;;;;;;;23.79;63.92;99322.31;1664686;85;21029;-57
2021/06/22 05:02:13;;;;;;;33.75;4.87;;;;;;;23.86;64.31;99323.35;1717806;82;21040;-55
2021/06/22 05:04:39;;;;;;;42.10;6.47;;;;;;;23.93;63.97;99326.28;1724656;82;21113;-55
2021/06/22 05:07:06;;;;;;;40.83;4.70;;;;;;;23.97;63.93;99323.04;1718236;81;21077;-55
2021/06/22 05:09:33;;;;;;;31.50;3.72;;;;;;;24.04;63.64;99323.21;1721141;82;21156;-55
2021/06/22 05:11:59;;;;;;;28.60;3.00;;;;;;;24.11;63.48;99324.25;1720926;82;21043;-57
2021/06/22 05:14:26;;;;;;;36.10;3.70;;;;;;;24.20;63.45;99323.22;1715135;82;21349;-57
2021/06/22 05:16:52;;;;;;;29.10;2.65;;;;;;;24.31;62.57;99323.44;1716428;81;21065;-56
2021/06/22 05:19:19;;;;;;;29.05;3.87;;;;;;;24.41;62.49;99313.96;1667616;85;21110;-56
2021/06/22 05:21:45;;;;;;;30.20;2.92;;;;;;;24.53;61.48;99313.62;1667599;85;21134;-56
2021/06/22 05:24:12;;;;;;;33.08;3.00;;;;;;;24.63;60.94;99317.05;1726025;81;21060;-56
2021/06/22 05:26:39;;;;;;;23.45;2.60;;;;;;;24.73;59.36;99314.98;1721648;81;21095;-55
2021/06/22 05:29:05;;;;;;;24.12;2.58;;;;;;;24.81;59.36;99321.33;1711096;82;21034;-55
2021/06/22 05:31:32;;;;;;;17.95;1.25;;;;;;;24.89;58.41;99325.44;1720543;82;21110;-56
2021/06/22 05:33:58;;;;;;;27.80;2.70;;;;;;;24.97;57.26;99331.98;1684176;83;23020;-57
2021/06/22 05:36:26;;;;;;;20.97;1.60;;;;;;;25.04;56.64;99337.13;1662696;85;21468;-58
2021/06/22 05:38:53;;;;;;;17.62;2.33;;;;;;;25.11;55.94;99337.63;1724920;81;20959;-58
2021/06/22 05:41:19;;;;;;;48.25;5.65;;;;;;;25.17;55.23;99345.20;1684047;83;21148;-59
2021/06/22 05:43:45;;;;;;;37.08;2.87;;;;;;;25.21;54.59;99346.55;1722423;82;21092;-59
2021/06/22 05:46:12;;;;;;;22.50;1.45;;;;;;;25.28;55.04;99340.32;1721485;82;21520;-57
2021/06/22 05:48:39;;;;;;;14.40;1.40;;;;;;;25.32;54.52;99346.69;1724990;82;21503;-59
2021/06/22 05:51:05;;;;;;;23.07;1.50;;;;;;;25.35;54.21;99340.80;1713622;82;21077;-58
2021/06/22 05:53:32;;;;;;;21.48;1.80;;;;;;;25.38;53.60;99340.46;1722715;82;21046;-57
2021/06/22 05:55:59;;;;;;;16.45;2.10;;;;;;;25.42;53.98;99335.47;1716494;82;21110;-57
2021/06/22 05:58:25;;;;;;;17.87;1.02;;;;;;;25.46;54.08;99336.81;1724418;82;22831;-57
2021/06/22 06:00:51;;;;;;;19.12;1.47;;;;;;;25.49;53.47;99329.06;1723064;82;21007;-59
2021/06/22 06:03:17;;;;;;;11.88;1.17;;;;;;;25.52;52.96;99336.12;1722421;81;21164;-58
2021/06/22 06:05:44;;;;;;;10.25;1.20;;;;;;;25.56;52.40;99336.08;1721112;82;21059;-59
2021/06/22 06:08:11;;;;;;;21.42;2.17;;;;;;;25.60;51.75;99339.70;1722472;82;21048;-58
2021/06/22 06:10:37;;;;;;;22.70;1.65;;;;;;;25.65;51.57;99330.91;1717396;81;21508;-54
2021/06/22 06:13:03;;;;;;;12.35;1.98;;;;;;;25.69;51.15;99326.73;1719025;82;21177;-55
2021/06/22 06:15:30;;;;;;;11.03;1.47;;;;;;;25.73;50.67;99332.75;1720736;82;21016;-54
2021/06/22 06:17:57;;;;;;;9.38;1.82;;;;;;;25.80;50.87;99328.23;1726306;82;21535;-55
2021/06/22 06:20:25;;;;;;;11.25;1.70;;;;;;;25.84;50.98;99325.46;1725511;81;20959;-57
2021/06/22 06:22:51;;;;;;;7.78;1.30;;;;;;;25.90;51.42;99326.97;1726718;82;21110;-56
2021/06/22 06:25:18;;;;;;;14.60;1.30;;;;;;;25.96;51.67;99324.84;1665424;84;20933;-55
2021/06/22 06:28:04;;;;;;;15.48;1.42;;;;;;;26.02;51.70;99321.91;1669960;85;21403;-55
2021/06/22 06:30:28;;;;;;;8.18;1.62;;;;;;;26.03;49.50;99318.08;1723574;81;21050;-56
2021/06/22 06:32:54;;;;;;;16.27;1.55;;;;;;;25.96;48.94;99301.92;1724767;82;20930;-58
2021/06/22 06:35:21;;;;;;;25.92;1.10;;;;;;;25.91;49.41;99305.25;1723050;82;21421;-56
2021/06/22 06:37:47;;;;;;;17.45;1.37;;;;;;;25.92;50.08;99308.87;1724973;81;21456;-56
2021/06/22 06:40:14;;;;;;;16.05;1.12;;;;;;;25.97;50.42;99307.78;1723471;82;21488;-57
2021/06/22 06:42:40;;;;;;;17.82;0.95;;;;;;;26.04;50.40;99297.73;1722724;82;21422;-58
2021/06/22 06:45:08;;;;;;;17.57;1.62;;;;;;;26.13;50.46;99299.91;1722311;82;21034;-56
2021/06/22 06:47:35;;;;;;;13.83;1.20;;;;;;;26.22;51.07;99301.05;1721663;82;21776;-57
2021/06/22 06:50:03;;;;;;;11.80;1.62;;;;;;;26.30;50.42;99306.53;1719963;82;21685;-56
2021/06/22 06:52:30;;;;;;;13.85;1.07;;;;;;;26.35;49.51;99304.61;1720890;82;21457;-58
2021/06/22 06:54:56;;;;;;;9.18;1.57;;;;;;;26.44;49.24;99302.12;1689876;83;21108;-57
2021/06/22 06:57:22;;;;;;;8.43;1.27;;;;;;;26.49;48.60;99304.30;1720951;82;21054;-56
2021/06/22 06:59:48;;;;;;;8.55;1.07;;;;;;;26.53;48.86;99307.05;1721892;82;21083;-58
2021/06/22 07:02:15;;;;;;;13.20;1.45;;;;;;;26.58;49.13;99315.61;1720263;82;21105;-55
2021/06/22 07:04:41;;;;;;;8.33;0.80;;;;;;;26.64;48.97;99328.66;1717834;82;21089;-57
2021/06/22 07:07:07;;;;;;;16.82;1.40;;;;;;;26.71;49.26;99331.03;1719415;82;21461;-55
2021/06/22 07:09:35;;;;;;;10.18;1.02;;;;;;;26.78;48.13;99348.55;1719096;82;21125;-57
2021/06/22 07:12:01;;;;;;;5.83;0.90;;;;;;;26.86;46.94;99358.66;1718783;82;22159;-56
2021/06/22 07:14:28;;;;;;;15.28;0.93;;;;;;;26.87;46.61;99358.48;1722964;82;21052;-58
2021/06/22 07:16:54;;;;;;;13.10;1.17;;;;;;;26.86;47.27;99344.33;1722418;82;21094;-57
2021/06/22 07:19:21;;;;;;;14.63;2.75;;;;;;;26.84;48.00;99346.41;1718257;82;21467;-57
2021/06/22 07:21:47;;;;;;;14.50;4.47;;;;;;;26.83;48.01;99348.84;1717154;82;21764;-57
2021/06/22 07:24:14;;;;;;;14.47;3.47;;;;;;;26.83;48.36;99347.98;1719707;81;21090;-58
2021/06/22 07:26:40;;;;;;;13.15;2.67;;;;;;;26.79;48.20;99352.17;1724029;82;21090;-57
2021/06/22 07:29:08;;;;;;;11.22;1.20;;;;;;;26.79;48.74;99353.03;1722470;82;21085;-57
2021/06/22 07:31:34;;;;;;;9.35;0.70;;;;;;;26.80;48.87;99348.34;1718035;82;21093;-57
2021/06/22 07:34:01;;;;;;;10.08;0.90;;;;;;;26.80;48.62;99349.20;1717605;82;21375;-57
2021/06/22 07:36:27;;;;;;;12.30;0.93;;;;;;;26.83;48.75;99352.12;1719872;82;21478;-56
2021/06/22 07:38:53;;;;;;;4.62;0.90;;;;;;;26.90;49.13;99353.08;1717342;82;21062;-59
2021/06/22 07:41:19;;;;;;;8.60;0.80;;;;;;;26.96;48.11;99349.09;1715662;81;21157;-58
2021/06/22 07:43:46;;;;;;;16.60;0.90;;;;;;;27.02;48.04;99353.86;1720587;81;21050;-56
2021/06/22 07:46:12;;;;;;;8.38;0.80;;;;;;;27.08;48.07;99353.09;1716110;82;21137;-58
2021/06/22 07:48:39;;;;;;;12.40;1.07;;;;;;;27.16;47.96;99348.52;1723520;82;22022;-57
2021/06/22 07:51:06;;;;;;;12.10;1.50;;;;;;;27.23;47.73;99354.48;1722250;81;21133;-58
2021/06/22 07:53:33;;;;;;;12.23;1.30;;;;;;;27.32;47.30;99348.33;1721768;82;21168;-59
2021/06/22 07:55:59;;;;;;;16.73;1.05;;;;;;;27.36;47.19;99345.54;1722544;82;21074;-58
2021/06/22 07:58:26;;;;;;;11.08;0.82;;;;;;;27.38;47.52;99339.30;1719785;82;21708;-56
2021/06/22 08:00:54;;;;;;;15.08;1.10;;;;;;;27.38;46.99;99337.92;1721534;82;22352;-58
2021/06/22 08:03:23;;;;;;;17.37;0.80;;;;;;;27.41;47.58;99338.90;1717470;82;21425;-57
2021/06/22 08:05:51;;;;;;;11.33;0.90;;;;;;;27.46;48.12;99335.05;1718025;81;21125;-58
2021/06/22 08:08:18;;;;;;;14.03;1.10;;;;;;;27.50;46.84;99330.84;1718602;82;21090;-55
2021/06/22 08:10:47;;;;;;;15.63;1.02;;;;;;;27.51;46.31;99325.65;1721953;82;21117;-58
2021/06/22 08:13:14;;;;;;;13.68;1.45;;;;;;;27.53;46.97;99323.55;1720232;82;21462;-58
2021/06/22 08:15:40;;;;;;;7.45;1.10;;;;;;;27.58;46.87;99320.23;1719817;82;21655;-56
2021/06/22 08:18:07;;;;;;;20.37;2.00;;;;;;;27.64;46.90;99324.48;1719005;82;21562;-54
2021/06/22 08:20:34;;;;;;;28.25;2.45;;;;;;;27.71;46.57;99331.47;1718540;82;21184;-55
2021/06/22 08:23:01;;;;;;;25.80;1.70;;;;;;;27.75;45.32;99342.47;1722157;82;20984;-54
2021/06/22 08:25:28;;;;;;;30.72;2.85;;;;;;;27.78;45.05;99337.94;1716869;81;21530;-56
2021/06/22 08:27:55;;;;;;;33.18;2.92;;;;;;;27.84;45.91;99342.16;1718620;82;21050;-54
2021/06/22 08:30:23;;;;;;;31.30;2.77;;;;;;;27.94;45.09;99347.91;1718245;82;21404;-54
2021/06/22 08:35:32;;;;;;;27.20;2.98;;;;;;;28.17;45.05;99341.70;1845875;75;21850;-55
2021/06/22 08:37:59;;;;;;;45.35;5.92;;;;;;;28.23;44.01;99343.19;1812670;77;21807;-56
2021/06/22 08:40:25;;;;;;;49.48;4.78;;;;;;;28.28;43.55;99335.66;1810487;77;21066;-56
2021/06/22 08:42:52;;;;;;;44.75;5.40;;;;;;;28.31;43.53;99328.89;1799008;77;21102;-57
2021/06/22 08:45:18;;;;;;;58.13;5.65;;;;;;;28.38;43.88;99335.34;1792886;77;21270;-56
2021/06/22 08:47:45;;;;;;;63.65;5.90;;;;;;;28.44;42.78;99335.92;1798544;77;21482;-55
2021/06/22 08:50:13;;;;;;;66.87;7.83;;;;;;;28.51;43.36;99331.30;1761754;78;21005;-57
2021/06/22 08:52:40;;;;;;;57.85;8.28;;;;;;;28.59;42.17;99331.16;1745184;80;22614;-55
2021/06/22 08:55:09;;;;;;;75.10;11.15;;;;;;;28.64;42.08;99330.57;1733518;80;20974;-56
2021/06/22 08:57:36;;;;;;;68.72;10.10;;;;;;;28.72;40.99;99334.58;1741570;80;20974;-54
2021/06/22 09:00:05;;;;;;;59.75;9.75;;;;;;;28.77;40.86;99341.25;1742227;80;20959;-55
2021/06/22 09:02:33;;;;;;;65.12;7.67;;;;;;;28.85;40.89;99337.48;1727718;80;21368;-56
2021/06/22 09:04:59;;;;;;;68.45;9.93;;;;;;;28.91;41.44;99329.77;1736224;80;21111;-56
2021/06/22 09:07:51;;;;;;;74.53;9.65;;;;;;;28.98;41.13;99337.59;1744016;80;21303;-54
2021/06/22 09:10:22;;;;;;;63.23;10.58;;;;;;;29.06;41.08;99333.28;1739958;80;20871;-57
2021/06/22 09:12:49;;;;;;;62.93;10.08;;;;;;;29.14;41.02;99324.81;1738124;80;20974;-57
2021/06/22 09:15:29;;;;;;;80.22;12.23;;;;;;;29.20;41.55;99330.05;1741239;80;20946;-57
2021/06/22 09:17:57;;;;;;;96.15;12.60;;;;;;;29.24;40.64;99335.53;1741068;80;21397;-56
2021/06/22 09:20:38;;;;;;;92.20;11.48;;;;;;;29.27;39.34;99333.19;1735546;80;21554;-56
2021/06/22 09:23:14;;;;;;;103.42;13.25;;;;;;;29.34;39.31;99331.87;1740668;80;21413;-56
2021/06/22 09:25:41;;;;;;;86.82;14.25;;;;;;;29.42;38.98;99328.96;1738962;80;20870;-56
2021/06/22 09:28:08;;;;;;;89.10;13.72;;;;;;;29.48;39.36;99331.44;1737957;80;20963;-58
2021/06/22 09:30:50;;;;;;;93.75;13.22;;;;;;;29.53;38.90;99326.11;1739779;80;21132;-59
2021/06/22 09:33:30;;;;;;;83.20;12.47;;;;;;;29.55;38.16;99331.79;1740173;80;20943;-58
2021/06/22 09:36:10;;;;;;;104.58;14.87;;;;;;;29.56;37.83;99327.09;1737846;80;21603;-58
2021/06/22 09:38:55;;;;;;;102.10;15.05;;;;;;;29.57;38.13;99319.97;1735795;80;21097;-57
2021/06/22 09:41:25;;;;;;;85.65;13.85;;;;;;;29.61;38.64;99310.69;1737337;80;21072;-55
2021/06/22 09:44:08;;;;;;;88.85;13.80;;;;;;;29.66;38.85;99318.73;1740456;80;21108;-57
2021/06/22 09:46:55;;;;;;;88.42;16.02;;;;;;;29.69;37.95;99323.84;1734092;80;21363;-56
2021/06/22 09:49:28;;;;;;;103.05;16.55;;;;;;;29.69;36.44;99313.27;1738188;80;20934;-56
2021/06/22 09:51:58;;;;;;;95.30;13.38;;;;;;;29.74;37.33;99314.91;1739193;80;20954;-56
2021/06/22 09:54:31;;;;;;;87.57;15.28;;;;;;;29.79;37.13;99316.52;1737559;80;20986;-55
2021/06/22 09:57:06;;;;;;;84.80;13.13;;;;;;;29.91;37.38;99309.33;1736647;80;21888;-57
2021/06/22 09:59:54;;;;;;;86.40;13.40;;;;;;;29.91;37.38;99309.33;1739620;80;21118;-59
2021/06/22 10:02:22;;;;;;;105.30;13.83;;;;;;;29.94;37.47;99304.75;1704943;80;21101;-59
2021/06/22 10:04:53;;;;;;;87.95;13.72;;;;;;;30.01;38.61;99307.58;1735432;80;21133;-59
2021/06/22 10:07:22;;;;;;;98.22;13.90;;;;;;;30.07;38.09;99309.50;1731366;80;21093;-57
2021/06/22 10:09:58;;;;;;;119.02;16.35;;;;;;;30.13;37.76;99309.19;1736648;80;22258;-57
2021/06/22 10:12:27;;;;;;;95.32;14.28;;;;;;;30.15;35.34;99312.08;1735771;80;21015;-56
2021/06/22 10:14:59;;;;;;;71.55;12.43;;;;;;;30.20;35.67;99317.02;1736763;80;21719;-58
2021/06/22 10:17:29;;;;;;;86.30;14.43;;;;;;;30.24;35.45;99312.20;1733865;80;21097;-57
2021/06/22 10:19:58;;;;;;;101.70;16.12;;;;;;;30.26;35.22;99302.28;1736008;80;21049;-56
2021/06/22 10:22:27;;;;;;;83.17;11.93;;;;;;;30.28;36.22;99302.94;1735191;80;21100;-58
2021/06/22 10:25:00;;;;;;;86.72;13.38;;;;;;;30.33;35.78;99304.53;1733050;80;21053;-57
2021/06/22 10:27:28;;;;;;;83.95;13.58;;;;;;;30.38;35.98;99308.37;1738617;80;21065;-58
2021/06/22 10:29:56;;;;;;;80.28;12.73;;;;;;;30.44;35.00;99296.97;1731400;80;21113;-56
2021/06/22 10:32:25;;;;;;;83.52;15.00;;;;;;;30.46;34.92;99302.61;1736439;80;21557;-58
2021/06/22 10:34:53;;;;;;;74.00;12.47;;;;;;;30.47;34.71;99303.47;1740201;80;21060;-58
2021/06/22 10:40:19;;;;;;;76.15;12.03;;;;;;;30.53;33.57;99303.20;1862912;75;21956;-58
2021/06/22 10:42:53;;;;;;;84.35;12.65;;;;;;;30.50;34.03;99300.28;1818503;76;21098;-57
2021/06/22 10:45:20;;;;;;;77.62;12.85;;;;;;;30.54;34.73;99299.36;1807223;77;21103;-57
2021/06/22 10:47:47;;;;;;;62.83;10.72;;;;;;;30.59;34.06;99297.64;1811478;77;20968;-59
2021/06/22 10:50:28;;;;;;;87.72;12.65;;;;;;;30.60;34.63;99290.17;1811598;77;21096;-57
2021/06/22 10:53:00;;;;;;;86.95;12.47;;;;;;;30.61;34.75;99301.60;1812642;77;21105;-59
2021/06/22 10:55:41;;;;;;;71.77;9.73;;;;;;;30.60;33.21;99296.58;1813173;77;26233;-58
2021/06/22 10:58:13;;;;;;;80.75;12.25;;;;;;;30.59;33.43;99289.84;1810902;77;21406;-58
2021/06/22 11:01:00;;;;;;;109.10;15.05;;;;;;;30.58;33.15;99300.63;1808742;77;21411;-56
2021/06/22 11:03:32;;;;;;;79.67;13.68;;;;;;;30.57;32.97;99303.94;1812624;77;20970;-61
2021/06/22 11:06:14;;;;;;;65.20;10.98;;;;;;;30.57;33.24;99298.91;1816122;77;28015;-61
2021/06/22 11:08:42;;;;;;;91.75;13.13;;;;;;;30.58;33.28;99307.05;1811766;77;21395;-58
2021/06/22 11:11:14;;;;;;;71.40;11.10;;;;;;;30.60;34.45;99298.50;1811347;77;21571;-58
2021/06/22 11:13:47;;;;;;;;;;;;;;;30.65;34.42;99298.70;1813161;77;21065;-60
2021/06/22 11:16:22;;;;;;;70.95;10.82;;;;;;;30.70;34.71;99303.09;1814272;77;20624;-63
2021/06/22 11:18:57;;;;;;;81.37;13.98;;;;;;;30.73;35.01;99304.04;1810037;77;21114;-58
2021/06/22 11:21:33;;;;;;;78.15;12.93;;;;;;;30.77;34.51;99296.47;1811060;77;21473;-60
2021/06/22 11:24:18;;;;;;;76.97;11.28;;;;;;;30.79;34.23;99301.25;1804788;77;21894;-60
2021/06/22 11:26:52;;;;;;;75.90;12.73;;;;;;;30.79;34.52;99295.69;1811965;77;21505;-60
2021/06/22 11:29:21;;;;;;;76.25;13.98;;;;;;;30.79;35.16;99297.08;1809699;77;21406;-62
2021/06/22 11:31:56;;;;;;;74.05;11.00;;;;;;;30.83;35.49;99290.04;1814090;77;21131;-58
2021/06/22 11:34:32;;;;;;;97.53;13.83;;;;;;;30.85;35.14;99288.45;1814880;77;20925;-58
2021/06/22 11:37:10;;;;;;;99.97;14.68;;;;;;;30.84;34.46;99283.42;1814760;77;21096;-58
2021/06/22 11:39:37;;;;;;;93.90;13.38;;;;;;;30.84;35.09;99283.42;1810146;77;21096;-58